createdAt,value
2022-12-28T00:01:08.626Z,32.97
2022-12-28T00:04:16.453Z,29.60
2022-12-28T00:07:22.605Z,26.07
2022-12-28T00:11:07.844Z,20.90
2022-12-28T00:13:57.687Z,33.83
2022-12-28T00:17:04.333Z,34.10
2022-12-28T00:20:12.151Z,32.67
2022-12-28T00:23:18.663Z,37.70
2022-12-28T00:26:24.992Z,45.37
2022-12-28T00:29:32.521Z,54.40
2022-12-28T00:32:39.099Z,49.07
2022-12-28T00:35:45.495Z,38.23
2022-12-28T00:38:51.754Z,32.23
2022-12-28T00:41:57.999Z,26.03
2022-12-28T00:45:06.223Z,23.17
2022-12-28T00:48:12.628Z,22.20
2022-12-28T00:51:20.967Z,14.00
2022-12-28T00:54:27.031Z,15.47
2022-12-28T00:57:33.958Z,16.63
2022-12-28T01:00:41.651Z,25.83
2022-12-28T01:03:48.551Z,12.37
2022-12-28T01:06:54.924Z,18.13
2022-12-28T01:10:00.931Z,8.07
2022-12-28T01:13:07.495Z,20.53
2022-12-28T01:16:17.165Z,28.50
2022-12-28T01:19:24.408Z,27.07
2022-12-28T01:22:30.345Z,21.77
2022-12-28T01:25:36.841Z,29.47
2022-12-28T01:28:43.124Z,27.00
2022-12-28T01:31:50.922Z,18.47
2022-12-28T01:34:57.171Z,23.43
2022-12-28T01:38:03.359Z,11.70
2022-12-28T01:41:10.640Z,12.00
2022-12-28T01:44:43.699Z,9.97
2022-12-28T01:47:54.234Z,15.53
2022-12-28T01:51:00.661Z,15.73
2022-12-28T01:54:07.099Z,17.33
2022-12-28T01:57:13.855Z,14.40
2022-12-28T02:00:20.238Z,22.50
2022-12-28T02:03:30.582Z,16.90
2022-12-28T02:06:36.589Z,12.60
2022-12-28T02:09:45.156Z,11.17
2022-12-28T02:13:11.970Z,13.33
2022-12-28T02:16:18.698Z,11.70
2022-12-28T02:19:38.345Z,18.07
2022-12-28T02:23:05.306Z,11.03
2022-12-28T02:26:40.601Z,16.70
2022-12-28T02:30:04.757Z,12.40
2022-12-28T02:33:18.833Z,17.10
2022-12-28T02:36:31.895Z,10.27
2022-12-28T02:39:42.813Z,14.63
2022-12-28T02:42:50.627Z,12.80
2022-12-28T02:46:15.096Z,10.63
2022-12-28T02:49:40.797Z,7.57
2022-12-28T02:53:19.739Z,12.93
2022-12-28T02:56:38.277Z,12.07
2022-12-28T03:00:02.003Z,12.17
2022-12-28T03:03:23.333Z,8.23
2022-12-28T03:06:59.483Z,10.87
2022-12-28T03:10:15.768Z,16.43
2022-12-28T03:13:46.045Z,10.63
2022-12-28T03:17:13.159Z,16.20
2022-12-28T03:20:42.153Z,26.30
2022-12-28T03:24:07.131Z,19.93
2022-12-28T03:27:34.209Z,21.50
2022-12-28T03:31:02.044Z,22.40
2022-12-28T03:34:08.761Z,19.40
2022-12-28T03:37:25.769Z,24.00
2022-12-28T03:40:40.027Z,17.33
2022-12-28T03:43:50.190Z,18.80
2022-12-28T03:47:01.776Z,17.53
2022-12-28T03:50:08.499Z,14.80
2022-12-28T03:53:17.544Z,16.30
2022-12-28T03:56:26.330Z,17.37
2022-12-28T03:59:32.429Z,15.67
2022-12-28T04:02:39.514Z,16.97
2022-12-28T04:05:45.660Z,14.63
2022-12-28T04:08:53.337Z,20.83
2022-12-28T04:11:59.407Z,18.70
2022-12-28T04:15:06.426Z,9.40
2022-12-28T04:18:12.496Z,10.63
2022-12-28T04:21:18.787Z,10.33
2022-12-28T04:24:26.487Z,8.53
2022-12-28T04:27:32.757Z,20.33
2022-12-28T04:30:39.024Z,34.47
2022-12-28T04:33:45.092Z,20.83
2022-12-28T04:36:51.020Z,16.07
2022-12-28T04:39:58.481Z,13.40
2022-12-28T04:43:04.890Z,14.07
2022-12-28T04:46:14.074Z,15.30
2022-12-28T04:49:20.081Z,14.23
2022-12-28T04:52:26.437Z,17.23
2022-12-28T04:55:35.767Z,46.77
2022-12-28T04:58:42.371Z,22.27
2022-12-28T05:01:48.549Z,21.70
2022-12-28T05:04:54.803Z,23.90
2022-12-28T05:08:02.335Z,18.53
2022-12-28T05:11:13.697Z,23.50
2022-12-28T05:14:19.528Z,22.73
2022-12-28T05:17:25.719Z,23.20
2022-12-28T05:20:32.007Z,15.63
2022-12-28T05:23:39.636Z,16.77
2022-12-28T05:26:47.523Z,16.33
2022-12-28T05:29:53.852Z,15.63
2022-12-28T05:33:00.137Z,26.07
2022-12-28T05:36:06.726Z,20.67
2022-12-28T05:39:12.901Z,25.77
2022-12-28T05:42:20.482Z,27.37
2022-12-28T05:45:26.982Z,24.37
2022-12-28T05:48:34.174Z,41.70
2022-12-28T05:51:40.632Z,55.97
2022-12-28T05:54:46.761Z,66.83
2022-12-28T05:57:55.862Z,53.10
2022-12-28T06:01:07.022Z,48.83
2022-12-28T06:04:17.346Z,46.40
2022-12-28T06:07:23.828Z,31.07
2022-12-28T06:10:30.132Z,37.63
2022-12-28T06:13:38.747Z,26.77
2022-12-28T06:16:46.068Z,34.80
2022-12-28T06:19:52.271Z,34.10
2022-12-28T06:22:59.367Z,32.53
2022-12-28T06:26:07.929Z,31.53
2022-12-28T06:29:15.383Z,37.50
2022-12-28T06:32:21.521Z,51.83
2022-12-28T06:35:28.000Z,63.13
2022-12-28T06:38:34.656Z,41.90
2022-12-28T06:41:42.035Z,48.97
2022-12-28T06:44:49.400Z,44.20
2022-12-28T06:47:55.591Z,51.33
2022-12-28T06:51:03.320Z,52.07
2022-12-28T06:54:10.699Z,30.80
2022-12-28T06:57:16.856Z,26.83
2022-12-28T07:00:24.569Z,17.17
2022-12-28T07:03:30.797Z,15.50
2022-12-28T07:06:39.780Z,20.80
2022-12-28T07:09:46.384Z,20.80
2022-12-28T07:12:52.667Z,29.60
2022-12-28T07:16:03.895Z,22.80
2022-12-28T07:19:10.597Z,20.57
2022-12-28T07:22:17.003Z,40.43
2022-12-28T07:25:23.241Z,55.77
2022-12-28T07:28:29.505Z,68.00
2022-12-28T07:31:44.849Z,75.27
2022-12-28T07:34:51.937Z,47.37
2022-12-28T07:37:58.397Z,60.23
2022-12-28T07:41:06.099Z,60.50
2022-12-28T07:44:12.285Z,62.40
2022-12-28T07:47:20.366Z,57.53
2022-12-28T07:50:27.174Z,56.57
2022-12-28T07:53:35.287Z,48.37
2022-12-28T07:59:47.343Z,79.87
2022-12-28T08:02:58.144Z,93.90
2022-12-28T08:06:06.770Z,97.83
2022-12-28T08:09:15.182Z,76.07
2022-12-28T08:12:21.782Z,82.43
2022-12-28T08:15:28.441Z,58.53
2022-12-28T08:18:36.170Z,53.80
2022-12-28T08:21:44.719Z,49.00
2022-12-28T08:24:51.048Z,36.37
2022-12-28T08:27:57.576Z,22.00
2022-12-28T08:31:08.458Z,22.13
2022-12-28T08:34:18.564Z,17.57
2022-12-28T08:37:24.730Z,19.43
2022-12-28T08:40:30.972Z,34.57
2022-12-28T08:43:37.346Z,31.40
2022-12-28T08:46:43.937Z,27.77
2022-12-28T08:49:51.749Z,23.50
2022-12-28T08:52:58.040Z,35.93
2022-12-28T08:56:06.773Z,31.63
2022-12-28T08:59:15.744Z,34.93
2022-12-28T09:02:22.166Z,32.73
2022-12-28T09:05:34.507Z,26.00
2022-12-28T09:08:56.811Z,30.07
2022-12-28T09:12:09.638Z,25.07
2022-12-28T09:15:16.259Z,41.20
2022-12-28T09:18:22.469Z,33.30
2022-12-28T09:21:32.403Z,40.37
2022-12-28T09:24:39.045Z,21.40
2022-12-28T09:27:50.578Z,31.40
2022-12-28T09:31:00.259Z,43.77
2022-12-28T09:34:35.701Z,44.13
2022-12-28T09:37:35.848Z,36.27
2022-12-28T09:40:42.295Z,33.33
2022-12-28T09:43:49.627Z,40.47
2022-12-28T09:47:02.029Z,46.17
2022-12-28T09:50:30.085Z,44.30
2022-12-28T09:53:38.352Z,43.37
2022-12-28T09:56:48.007Z,49.47
2022-12-28T09:59:54.804Z,51.30
2022-12-28T10:03:05.093Z,37.80
2022-12-28T10:06:13.861Z,37.33
2022-12-28T10:09:26.968Z,41.53
2022-12-28T10:12:33.273Z,55.53
2022-12-28T10:15:39.433Z,36.47
2022-12-28T10:18:45.735Z,32.73
2022-12-28T10:22:00.604Z,42.63
2022-12-28T10:25:17.070Z,38.47
2022-12-28T10:28:28.487Z,24.70
2022-12-28T10:31:36.502Z,30.67
2022-12-28T10:34:56.135Z,26.10
2022-12-28T10:38:05.355Z,22.43
2022-12-28T10:41:15.977Z,27.97
2022-12-28T10:44:39.448Z,44.80
2022-12-28T10:47:50.080Z,37.57
2022-12-28T10:50:59.447Z,40.23
2022-12-28T10:54:27.987Z,51.30
2022-12-28T10:57:55.766Z,54.30
2022-12-28T11:01:08.670Z,58.77
2022-12-28T11:04:19.457Z,54.30
2022-12-28T11:07:32.232Z,45.67
2022-12-28T11:10:40.492Z,39.87
2022-12-28T11:13:53.891Z,82.40
2022-12-28T11:17:05.669Z,96.63
2022-12-28T11:20:19.289Z,73.00
2022-12-28T11:23:31.652Z,49.90
2022-12-28T11:26:45.549Z,44.17
2022-12-28T11:29:54.453Z,52.30
2022-12-28T11:33:05.000Z,43.87
2022-12-28T11:36:16.865Z,55.27
2022-12-28T11:39:43.994Z,58.03
2022-12-28T11:42:57.653Z,64.77
2022-12-28T11:46:07.256Z,69.53
2022-12-28T11:49:32.571Z,88.87
2022-12-28T11:52:47.653Z,98.10
2022-12-28T11:56:04.609Z,68.87
2022-12-28T11:59:25.552Z,79.27
2022-12-28T12:02:42.689Z,78.30
2022-12-28T12:05:53.368Z,81.20
2022-12-28T12:09:00.089Z,80.20
2022-12-28T12:12:37.044Z,98.03
2022-12-28T12:15:45.820Z,85.87
2022-12-28T12:18:56.575Z,85.67
2022-12-28T12:22:07.900Z,110.30
2022-12-28T12:25:23.102Z,106.07
2022-12-28T12:28:40.544Z,94.30
2022-12-28T12:31:51.901Z,114.37
2022-12-28T12:35:04.888Z,99.80
2022-12-28T12:38:22.932Z,107.40
2022-12-28T12:41:37.980Z,124.03
2022-12-28T12:44:56.578Z,118.47
2022-12-28T12:48:20.105Z,130.20
2022-12-28T12:51:34.486Z,108.10
2022-12-28T12:54:54.238Z,85.57
2022-12-28T12:58:06.816Z,41.07
2022-12-28T13:01:29.165Z,41.93
2022-12-28T13:04:37.263Z,30.10
2022-12-28T13:07:45.412Z,31.30
2022-12-28T13:14:21.016Z,39.20
2022-12-28T13:17:28.258Z,30.87
2022-12-28T13:20:34.938Z,48.00
2022-12-28T13:23:46.524Z,36.47
2022-12-28T13:26:53.337Z,26.13
2022-12-28T13:30:01.525Z,26.43
2022-12-28T13:33:22.324Z,33.53
2022-12-28T13:36:28.754Z,16.10
2022-12-28T13:39:41.811Z,47.93
2022-12-28T13:42:57.507Z,33.93
2022-12-28T13:46:09.188Z,40.07
2022-12-28T13:49:15.730Z,34.10
2022-12-28T13:52:28.819Z,43.10
2022-12-28T13:55:41.442Z,33.97
2022-12-28T13:58:51.688Z,43.73
2022-12-28T14:01:58.237Z,41.67
2022-12-28T14:05:04.829Z,45.50
2022-12-28T14:08:12.181Z,52.57
2022-12-28T14:11:20.632Z,36.07
2022-12-28T14:14:27.167Z,39.30
2022-12-28T14:17:34.300Z,37.53
2022-12-28T14:20:48.433Z,34.53
2022-12-28T14:24:04.587Z,33.90
2022-12-28T14:27:12.542Z,34.67
2022-12-28T14:30:25.305Z,32.57
2022-12-28T14:33:35.919Z,28.13
2022-12-28T14:36:48.976Z,71.97
2022-12-28T14:40:01.384Z,58.77
2022-12-28T14:43:20.008Z,36.63
2022-12-28T14:46:34.903Z,38.73
2022-12-28T14:49:42.765Z,36.40
2022-12-28T14:52:50.965Z,54.20
2022-12-28T14:56:04.519Z,60.13
2022-12-28T14:59:19.818Z,100.93
2022-12-28T15:02:43.346Z,69.10
2022-12-28T15:05:51.661Z,81.27
2022-12-28T15:08:59.902Z,54.70
2022-12-28T15:12:12.416Z,42.60
2022-12-28T15:15:20.220Z,60.77
2022-12-28T15:18:27.019Z,65.37
2022-12-28T15:21:33.430Z,85.70
2022-12-28T15:24:41.649Z,74.87
2022-12-28T15:27:51.092Z,33.23
2022-12-28T15:30:58.484Z,33.37
2022-12-28T15:34:05.019Z,31.70
2022-12-28T15:37:11.079Z,26.57
2022-12-28T15:40:17.334Z,60.40
2022-12-28T15:43:23.557Z,84.90
2022-12-28T15:46:31.624Z,93.67
2022-12-28T15:49:38.854Z,85.00
2022-12-28T15:52:45.329Z,103.87
2022-12-28T15:56:00.837Z,85.20
2022-12-28T15:59:09.262Z,99.93
2022-12-28T16:02:17.751Z,100.90
2022-12-28T16:05:24.419Z,103.80
2022-12-28T16:08:30.976Z,75.13
2022-12-28T16:11:37.430Z,111.20
2022-12-28T16:14:44.759Z,85.50
2022-12-28T16:17:57.220Z,61.60
2022-12-28T16:21:04.508Z,55.10
2022-12-28T16:24:11.763Z,52.47
2022-12-28T16:27:18.065Z,66.07
2022-12-28T16:30:24.650Z,78.97
2022-12-28T16:33:32.523Z,40.00
2022-12-28T16:36:39.189Z,51.43
2022-12-28T16:39:45.781Z,57.27
2022-12-28T16:42:52.422Z,38.43
2022-12-28T16:45:58.570Z,35.83
2022-12-28T16:49:06.164Z,47.17
2022-12-28T16:52:12.154Z,62.90
2022-12-28T16:55:18.223Z,46.27
2022-12-28T16:58:24.393Z,56.97
2022-12-28T17:01:30.652Z,53.27
2022-12-28T17:04:38.355Z,63.27
2022-12-28T17:07:44.840Z,53.73
2022-12-28T17:10:51.148Z,56.93
2022-12-28T17:14:01.486Z,60.70
2022-12-28T17:17:08.203Z,66.13
2022-12-28T17:20:16.402Z,100.10
2022-12-28T17:23:22.640Z,119.73
2022-12-28T17:26:29.142Z,146.10
2022-12-28T17:29:35.240Z,85.37
2022-12-28T17:32:41.892Z,50.70
2022-12-28T17:35:49.539Z,72.67
2022-12-28T17:38:56.493Z,103.53
2022-12-28T17:42:02.837Z,91.07
2022-12-28T17:45:11.902Z,78.70
2022-12-28T17:48:20.336Z,97.33
2022-12-28T17:51:29.478Z,68.80
2022-12-28T17:54:36.141Z,97.90
2022-12-28T17:57:42.424Z,84.43
2022-12-28T18:00:48.718Z,76.57
2022-12-28T18:03:55.347Z,98.13
2022-12-28T18:07:03.364Z,72.47
2022-12-28T18:10:10.876Z,50.93
2022-12-28T18:13:17.668Z,64.63
2022-12-28T18:16:24.217Z,39.87
2022-12-28T18:19:30.482Z,98.53
2022-12-28T18:22:38.551Z,66.43
2022-12-28T18:25:45.268Z,93.17
2022-12-28T18:28:51.443Z,89.77
2022-12-28T18:31:57.439Z,104.97
2022-12-28T18:35:03.675Z,101.80
2022-12-28T18:38:11.264Z,80.07
2022-12-28T18:41:20.922Z,79.07
2022-12-28T18:44:27.730Z,84.33
2022-12-28T18:47:35.467Z,118.67
2022-12-28T18:50:41.815Z,134.87
2022-12-28T18:53:50.424Z,65.30
2022-12-28T18:56:57.420Z,81.33
2022-12-28T19:00:03.662Z,53.10
2022-12-28T19:03:10.113Z,45.23
2022-12-28T19:06:16.716Z,51.97
2022-12-28T19:09:24.248Z,55.40
2022-12-28T19:12:30.689Z,85.37
2022-12-28T19:15:37.093Z,69.67
2022-12-28T19:18:43.351Z,109.97
2022-12-28T19:21:56.529Z,74.77
2022-12-28T19:25:07.136Z,79.93
2022-12-28T19:28:13.488Z,117.10
2022-12-28T19:31:20.065Z,113.53
2022-12-28T19:34:26.503Z,139.17
2022-12-28T19:37:32.813Z,124.40
2022-12-28T19:40:40.634Z,110.73
2022-12-28T19:43:46.898Z,136.73
2022-12-28T19:46:54.213Z,129.33
2022-12-28T19:50:00.549Z,85.73
2022-12-28T19:53:06.834Z,52.40
2022-12-28T19:56:16.435Z,43.60
2022-12-28T19:59:22.496Z,38.27
2022-12-28T20:02:31.766Z,38.67
2022-12-28T20:05:38.459Z,42.60
2022-12-28T20:08:47.193Z,32.00
2022-12-28T20:11:55.063Z,26.80
2022-12-28T20:15:01.144Z,23.53
2022-12-28T20:18:07.575Z,29.23
2022-12-28T20:21:21.822Z,39.33
2022-12-28T20:24:28.680Z,47.10
2022-12-28T20:27:36.916Z,69.63
2022-12-28T20:30:43.472Z,71.83
2022-12-28T20:33:50.326Z,77.80
2022-12-28T20:36:56.396Z,78.33
2022-12-28T20:40:02.381Z,54.73
2022-12-28T20:43:24.984Z,35.20
2022-12-28T20:46:31.391Z,34.17
2022-12-28T20:49:37.636Z,64.40
2022-12-28T20:52:43.983Z,45.50
2022-12-28T20:55:50.390Z,38.40
2022-12-28T20:58:58.346Z,49.60
2022-12-28T21:02:05.004Z,43.07
2022-12-28T21:05:11.816Z,54.37
2022-12-28T21:08:18.183Z,43.57
2022-12-28T21:11:24.644Z,70.90
2022-12-28T21:14:32.401Z,60.47
2022-12-28T21:17:39.139Z,66.03
2022-12-28T21:20:47.306Z,58.47
2022-12-28T21:23:53.893Z,55.00
2022-12-28T21:27:00.404Z,41.17
2022-12-28T21:30:09.848Z,51.10
2022-12-28T21:33:16.412Z,54.30
2022-12-28T21:36:23.147Z,68.33
2022-12-28T21:39:29.406Z,48.20
2022-12-28T21:42:36.268Z,36.63
2022-12-28T21:45:43.828Z,39.20
2022-12-28T21:48:50.297Z,22.57
2022-12-28T21:51:59.652Z,30.83
2022-12-28T21:55:20.660Z,44.00
2022-12-28T21:58:26.817Z,74.90
2022-12-28T22:01:52.244Z,51.47
2022-12-28T22:05:15.993Z,89.07
2022-12-28T22:08:39.689Z,97.97
2022-12-28T22:12:03.543Z,72.60
2022-12-28T22:15:29.055Z,22.00
2022-12-28T22:19:00.839Z,11.43
2022-12-28T22:22:03.596Z,13.33
2022-12-28T22:25:11.647Z,22.33
2022-12-28T22:28:17.868Z,18.47
2022-12-28T22:31:24.194Z,20.80
2022-12-28T22:34:32.332Z,16.60
2022-12-28T22:37:38.644Z,28.73
2022-12-28T22:40:44.936Z,52.07
2022-12-28T22:43:51.946Z,80.30
2022-12-28T22:46:57.995Z,52.10
2022-12-28T22:50:07.428Z,45.17
2022-12-28T22:53:13.714Z,37.70
2022-12-28T22:56:21.185Z,33.53
2022-12-28T22:59:27.274Z,67.40
2022-12-28T23:02:33.629Z,78.87
2022-12-28T23:05:41.151Z,79.50
2022-12-28T23:08:48.263Z,91.10
2022-12-28T23:11:54.687Z,69.93
2022-12-28T23:15:20.060Z,39.40
2022-12-28T23:18:43.894Z,38.77
2022-12-28T23:22:08.936Z,29.63
2022-12-28T23:25:36.553Z,19.83
2022-12-28T23:28:43.297Z,12.23
2022-12-28T23:31:49.869Z,20.53
2022-12-28T23:34:56.213Z,17.93
2022-12-28T23:38:03.506Z,24.73
2022-12-28T23:41:27.570Z,41.97
2022-12-28T23:44:34.413Z,48.40
2022-12-28T23:47:40.728Z,58.43
2022-12-28T23:50:47.051Z,61.23
2022-12-28T23:53:54.874Z,102.07
2022-12-28T23:57:01.378Z,76.53
